KCNY

Canyonlands Field Airport

Moab, Utah, USA
METAR KCNY 230953Z AUTO 07003KT 10SM FEW032 BKN100 OVC120 10/09 A3013 RMK AO2 SLP171 T01000089
Observed Flight Rules
Oct-23 @ 09:53 UTC (39 minutes ago) Visual Flight Rules
Wind Visibility Clouds
70° at 3 knots 10 miles
  • Few at 3,200' AGL
  • Broken at 10,000' AGL
  • Overcast at 12,000' AGL
Temperatures Readings
Current 10°C / 50°F
Dewpoint 9°C / 48°F
Humidity 94%
Altimeter 30.13" Hg
Pressure 1017.1 hPa
Elevation 1390
METAR KCNY 230953Z AUTO 07003KT 10SM FEW032 BKN100 OVC120 10/09 A3013 RMK AO2 SLP171 T01000089
Observed Flight Rules
Oct-23 @ 09:53 UTC
(39 minutes ago)
VFR
Wind Visibility
70° at 3 knots 10 miles
Clouds
  • Few at 3,200' AGL
  • Broken at 10,000' AGL
  • Overcast at 12,000' AGL
Temperature Dewpoint
10°C / 50°F 9°C / 48°F
Humidity Altimeter Pressure
94% 30.13" Hg 1017.1 hPa